Time;durP1;ratioP1;P1;durP2;ratioP2;P2;SDS_P1;SDS_P2;PMS_P1;PMS_P2;Temp;Humidity;BMP_temperature;BMP_pressure;BME280_temperature;BME280_humidity;BME280_pressure;Samples;Min_cycle;Max_cycle;Signal;HPM_P1;HPM_P2
2024/03/30 00:00:48;;;;;;;103.55;15.98;;;18.10;49.90;;;;;;5094142;28;20028;-73
2024/03/30 00:03:15;;;;;;;131.98;18.40;;;18.00;49.90;;;;;;5093755;28;20085;-72
2024/03/30 00:05:41;;;;;;;121.57;16.67;;;18.00;49.80;;;;;;5093708;28;20047;-71
2024/03/30 00:08:07;;;;;;;129.35;16.73;;;18.00;49.60;;;;;;5093772;28;20032;-71
2024/03/30 00:10:36;;;;;;;134.13;18.27;;;18.10;49.90;;;;;;5093500;28;20474;-70
2024/03/30 00:13:03;;;;;;;111.53;17.65;;;18.00;49.70;;;;;;5093217;28;20062;-71
2024/03/30 00:15:29;;;;;;;126.65;18.27;;;18.00;49.70;;;;;;5093517;28;20024;-71
2024/03/30 00:17:55;;;;;;;141.38;21.10;;;18.00;49.70;;;;;;5093501;28;20553;-71
2024/03/30 00:20:24;;;;;;;130.85;18.60;;;18.00;49.60;;;;;;5093590;28;20130;-70
2024/03/30 00:22:51;;;;;;;115.43;19.63;;;18.00;49.70;;;;;;5093142;28;20051;-71
2024/03/30 00:25:18;;;;;;;119.20;17.77;;;18.00;49.90;;;;;;5093117;28;20055;-72
2024/03/30 00:27:44;;;;;;;120.60;17.52;;;18.00;50.40;;;;;;5092982;28;20032;-70
2024/03/30 00:30:10;;;;;;;96.75;16.05;;;18.00;50.50;;;;;;5093024;28;20369;-71
2024/03/30 00:32:35;;;;;;;124.90;19.55;;;17.90;50.70;;;;;;5093003;28;20035;-71
2024/03/30 00:35:02;;;;;;;112.80;16.70;;;17.90;51.00;;;;;;5092932;28;20510;-71
2024/03/30 00:37:28;;;;;;;108.25;16.17;;;17.80;51.30;;;;;;5092536;28;20036;-71
2024/03/30 00:39:54;;;;;;;99.78;16.38;;;17.80;51.50;;;;;;5092694;28;20187;-71
2024/03/30 00:42:19;;;;;;;123.03;17.73;;;17.80;51.90;;;;;;5092768;28;20027;-72
2024/03/30 00:44:45;;;;;;;125.10;18.65;;;17.70;52.00;;;;;;5092647;28;20040;-71
2024/03/30 00:47:11;;;;;;;132.13;19.60;;;17.70;52.10;;;;;;5074443;28;20036;-70
2024/03/30 00:49:37;;;;;;;124.60;18.35;;;17.70;52.20;;;;;;5092452;28;20131;-70
2024/03/30 00:52:03;;;;;;;101.25;16.90;;;17.70;52.10;;;;;;5092717;28;20028;-71
2024/03/30 00:54:28;;;;;;;130.23;18.10;;;17.70;52.40;;;;;;5092426;28;20028;-71
2024/03/30 00:56:54;;;;;;;144.38;20.35;;;17.70;52.30;;;;;;5092497;28;20032;-71
2024/03/30 00:59:21;;;;;;;109.05;18.33;;;17.70;52.10;;;;;;5092527;28;20032;-71
2024/03/30 01:01:48;;;;;;;118.40;16.90;;;17.70;52.10;;;;;;5092655;28;20104;-71
2024/03/30 01:04:13;;;;;;;127.82;18.52;;;17.70;52.10;;;;;;5092323;28;20039;-71
2024/03/30 01:06:40;;;;;;;131.93;19.35;;;17.70;52.20;;;;;;5092490;28;20547;-72
2024/03/30 01:09:07;;;;;;;115.63;18.52;;;17.70;52.20;;;;;;5092412;28;20468;-70
2024/03/30 01:11:34;;;;;;;113.13;18.08;;;17.70;52.20;;;;;;5092436;28;20035;-71
2024/03/30 01:14:00;;;;;;;105.93;18.50;;;17.70;52.30;;;;;;5088727;28;20043;-70
2024/03/30 01:16:26;;;;;;;111.13;17.08;;;17.60;52.30;;;;;;5092062;28;20082;-71
2024/03/30 01:18:52;;;;;;;132.43;19.20;;;17.60;52.40;;;;;;5092228;28;20043;-70
2024/03/30 01:21:18;;;;;;;126.20;17.10;;;17.60;52.60;;;;;;5092184;28;20035;-71
2024/03/30 01:23:44;;;;;;;113.22;16.73;;;17.60;52.60;;;;;;5092282;28;20163;-70
2024/03/30 01:26:13;;;;;;;129.95;18.23;;;17.60;53.00;;;;;;5081199;28;20024;-72
2024/03/30 01:28:42;;;;;;;105.47;17.23;;;17.50;53.00;;;;;;5097291;28;20028;-70
2024/03/30 01:31:10;;;;;;;97.78;15.50;;;17.50;53.00;;;;;;5096495;28;20456;-70
2024/03/30 01:33:36;;;;;;;103.50;16.80;;;17.50;53.40;;;;;;5096217;28;20377;-70
2024/03/30 01:36:02;;;;;;;123.20;18.27;;;17.40;53.30;;;;;;5096114;28;20166;-71
2024/03/30 01:38:30;;;;;;;96.10;15.73;;;17.30;53.40;;;;;;5096160;28;20115;-71
2024/03/30 01:40:55;;;;;;;83.40;14.75;;;17.30;53.50;;;;;;5077974;28;20046;-70
2024/03/30 01:43:21;;;;;;;106.43;14.98;;;17.30;53.80;;;;;;5096007;28;20043;-70
2024/03/30 01:45:47;;;;;;;107.68;16.30;;;17.20;53.40;;;;;;5096122;28;20032;-70
2024/03/30 01:48:15;;;;;;;113.13;16.20;;;17.10;53.40;;;;;;5095986;28;20124;-70
2024/03/30 01:50:44;;;;;;;90.00;14.88;;;17.10;53.40;;;;;;5095911;28;20422;-70
2024/03/30 01:53:15;;;;;;;100.90;14.07;;;17.10;53.60;;;;;;5096010;28;20039;-71
2024/03/30 01:55:44;;;;;;;100.35;15.23;;;17.00;53.60;;;;;;5096145;28;20551;-71
2024/03/30 01:58:17;;;;;;;97.63;14.45;;;17.10;54.10;;;;;;5095755;28;20453;-71
2024/03/30 02:00:43;;;;;;;97.03;14.57;;;17.10;53.90;;;;;;5095831;28;20032;-69
2024/03/30 02:03:10;;;;;;;98.38;17.05;;;17.00;53.80;;;;;;5095532;28;20028;-70
2024/03/30 02:05:35;;;;;;;93.10;13.82;;;17.00;54.10;;;;;;5077402;28;20033;-71
2024/03/30 02:08:04;;;;;;;99.53;16.13;;;17.00;54.20;;;;;;5095780;28;20036;-71
2024/03/30 02:10:30;;;;;;;87.18;12.88;;;16.90;54.20;;;;;;5095336;28;20032;-71
2024/03/30 02:12:56;;;;;;;104.57;14.32;;;16.90;54.40;;;;;;5095517;28;20028;-71
2024/03/30 02:15:22;;;;;;;101.07;15.02;;;16.90;54.60;;;;;;5095777;28;20036;-70
2024/03/30 02:17:48;;;;;;;92.07;14.82;;;16.90;54.50;;;;;;5095652;28;20032;-71
2024/03/30 02:20:14;;;;;;;83.78;13.18;;;16.90;54.60;;;;;;5095119;28;20127;-70
2024/03/30 02:22:47;;;;;;;99.30;15.15;;;16.90;54.60;;;;;;5095494;28;20032;-70
2024/03/30 02:25:13;;;;;;;91.93;15.70;;;17.00;54.80;;;;;;5095438;28;20594;-71
2024/03/30 02:27:40;;;;;;;112.00;14.90;;;16.90;54.70;;;;;;5095458;28;20107;-71
2024/03/30 02:30:09;;;;;;;81.88;13.77;;;16.90;54.50;;;;;;5095317;28;20052;-71
2024/03/30 02:32:35;;;;;;;87.30;13.63;;;16.80;54.70;;;;;;5095206;28;20127;-70
2024/03/30 02:35:01;;;;;;;87.10;14.93;;;16.80;55.00;;;;;;5094818;28;20032;-71
2024/03/30 02:37:27;;;;;;;95.32;14.38;;;16.80;55.00;;;;;;5095141;28;20066;-70
2024/03/30 02:39:52;;;;;;;80.07;14.02;;;16.80;55.30;;;;;;5095670;28;20036;-70
2024/03/30 02:42:18;;;;;;;101.95;14.90;;;16.80;55.40;;;;;;5095747;28;20103;-70
2024/03/30 02:44:44;;;;;;;102.70;15.02;;;16.80;55.70;;;;;;5095374;28;20040;-71
2024/03/30 02:47:09;;;;;;;85.30;13.88;;;16.80;55.90;;;;;;5095257;28;20430;-71
2024/03/30 02:49:35;;;;;;;86.80;15.90;;;16.80;55.90;;;;;;5095302;28;20039;-71
2024/03/30 02:52:01;;;;;;;92.18;13.50;;;16.80;55.70;;;;;;5095291;28;20483;-71
2024/03/30 02:54:26;;;;;;;75.50;12.57;;;16.80;55.60;;;;;;5077033;28;20036;-71
2024/03/30 02:56:52;;;;;;;91.15;13.57;;;16.80;55.80;;;;;;5095100;28;20028;-71
2024/03/30 02:59:18;;;;;;;86.35;12.98;;;16.80;55.80;;;;;;5094960;28;20046;-69
2024/03/30 03:01:45;;;;;;;75.00;13.23;;;16.80;55.70;;;;;;5095081;28;20028;-70
2024/03/30 03:04:11;;;;;;;73.85;12.77;;;16.80;55.60;;;;;;5095159;28;20055;-71
2024/03/30 03:06:37;;;;;;;73.50;13.35;;;16.90;55.70;;;;;;5077202;28;20040;-71
2024/03/30 03:09:05;;;;;;;87.68;12.68;;;16.90;55.70;;;;;;5094897;28;20365;-71
2024/03/30 03:11:31;;;;;;;75.25;12.02;;;16.90;55.80;;;;;;5094741;28;20063;-71
2024/03/30 03:13:56;;;;;;;64.97;12.75;;;16.90;55.70;;;;;;5094807;28;20496;-71
2024/03/30 03:16:22;;;;;;;86.60;12.00;;;16.90;55.90;;;;;;5094611;28;20472;-70
2024/03/30 03:18:48;;;;;;;67.63;11.88;;;16.90;55.80;;;;;;5094623;28;20048;-71
2024/03/30 03:21:13;;;;;;;53.08;9.88;;;17.00;55.70;;;;;;5094787;28;20077;-70
2024/03/30 03:23:40;;;;;;;61.33;10.10;;;17.00;55.50;;;;;;5094571;28;20082;-71
2024/03/30 03:26:06;;;;;;;65.95;9.43;;;17.00;55.50;;;;;;5094895;28;20020;-70
2024/03/30 03:28:31;;;;;;;54.70;8.70;;;17.00;55.70;;;;;;5094299;28;20484;-70
2024/03/30 03:30:57;;;;;;;55.35;8.98;;;17.00;55.60;;;;;;5094722;28;20028;-70
2024/03/30 03:33:23;;;;;;;64.78;9.93;;;17.10;55.80;;;;;;5076390;28;20066;-71
2024/03/30 03:35:49;;;;;;;50.30;9.18;;;17.10;55.70;;;;;;5094480;28;20485;-71
2024/03/30 03:38:14;;;;;;;35.00;7.80;;;17.10;56.30;;;;;;5094630;28;20077;-71
2024/03/30 03:40:40;;;;;;;55.08;8.43;;;17.20;56.10;;;;;;5094173;28;20040;-71
2024/03/30 03:43:06;;;;;;;49.97;7.72;;;17.20;55.70;;;;;;5094373;28;20483;-70
2024/03/30 03:45:31;;;;;;;48.78;8.38;;;17.30;55.70;;;;;;5094264;28;20619;-70
2024/03/30 03:47:57;;;;;;;42.28;6.82;;;17.30;55.60;;;;;;5093914;28;20028;-70
2024/03/30 03:50:23;;;;;;;54.80;9.27;;;17.30;55.30;;;;;;5094302;28;20059;-70
2024/03/30 03:52:49;;;;;;;48.17;8.65;;;17.40;55.80;;;;;;5094048;28;20047;-71
2024/03/30 03:55:14;;;;;;;49.30;7.25;;;17.40;55.60;;;;;;5097850;28;20036;-71
2024/03/30 03:57:40;;;;;;;45.72;7.50;;;17.50;55.80;;;;;;5098931;28;20028;-70
2024/03/30 04:00:06;;;;;;;54.33;8.70;;;17.50;55.60;;;;;;5094375;28;20112;-70
2024/03/30 04:02:32;;;;;;;54.80;8.77;;;17.50;55.90;;;;;;5093797;28;20111;-70
2024/03/30 04:04:58;;;;;;;49.70;7.13;;;17.50;55.80;;;;;;5093453;28;20555;-70
2024/03/30 04:07:23;;;;;;;67.32;8.60;;;17.50;55.60;;;;;;5093826;28;20032;-71
2024/03/30 04:09:52;;;;;;;54.40;7.88;;;17.40;55.70;;;;;;5093760;28;20561;-71
2024/03/30 04:12:17;;;;;;;41.15;7.05;;;17.40;55.40;;;;;;5093854;28;20089;-71
2024/03/30 04:14:44;;;;;;;44.92;7.03;;;17.40;55.50;;;;;;5093904;28;20103;-71
2024/03/30 04:17:10;;;;;;;51.13;7.55;;;17.40;55.10;;;;;;5093471;28;20135;-70
2024/03/30 04:19:35;;;;;;;56.05;8.07;;;17.30;55.40;;;;;;5084786;22;20140;-71
2024/03/30 04:22:02;;;;;;;49.33;8.85;;;17.30;55.40;;;;;;5073339;28;20117;-71
2024/03/30 04:24:28;;;;;;;53.90;9.82;;;17.20;55.40;;;;;;5055030;28;20044;-70
2024/03/30 04:26:54;;;;;;;72.95;10.43;;;17.10;55.60;;;;;;5072926;28;20039;-71
2024/03/30 04:29:19;;;;;;;72.88;10.85;;;17.10;56.30;;;;;;5073131;28;20373;-69
2024/03/30 04:31:45;;;;;;;71.55;11.93;;;16.90;56.40;;;;;;5073208;28;20032;-70
2024/03/30 04:34:11;;;;;;;62.88;10.93;;;16.70;56.60;;;;;;5073142;28;20040;-70
2024/03/30 04:36:37;;;;;;;71.57;10.13;;;16.50;57.40;;;;;;5072934;28;20043;-71
2024/03/30 04:39:04;;;;;;;60.72;11.00;;;16.30;57.80;;;;;;5072930;28;20111;-70
2024/03/30 04:41:30;;;;;;;62.70;10.13;;;16.20;58.30;;;;;;5073206;28;20028;-71
2024/03/30 04:43:56;;;;;;;56.78;10.88;;;16.10;58.50;;;;;;5073137;28;20454;-71
2024/03/30 04:46:21;;;;;;;53.67;9.80;;;16.10;59.20;;;;;;5073286;28;20046;-71
2024/03/30 04:48:47;;;;;;;70.70;10.60;;;16.10;59.60;;;;;;5072659;28;20028;-70
2024/03/30 04:51:13;;;;;;;68.47;10.15;;;16.10;59.30;;;;;;5072973;28;20032;-70
2024/03/30 04:53:39;;;;;;;54.25;10.38;;;16.00;59.60;;;;;;5072956;28;20056;-70
2024/03/30 04:56:07;;;;;;;52.03;8.80;;;16.00;59.80;;;;;;5072940;28;20029;-71
2024/03/30 04:58:33;;;;;;;64.38;9.82;;;16.10;60.10;;;;;;5072156;28;20052;-71
2024/03/30 05:01:06;;;;;;;55.45;9.07;;;16.10;60.10;;;;;;5072768;28;20025;-70
2024/03/30 05:03:32;;;;;;;65.10;11.00;;;16.00;60.10;;;;;;5072821;28;20040;-70
2024/03/30 05:05:58;;;;;;;65.28;10.35;;;16.00;60.40;;;;;;5072743;28;20029;-72
2024/03/30 05:08:24;;;;;;;61.60;9.10;;;16.00;60.30;;;;;;5072709;28;20569;-69
2024/03/30 05:10:53;;;;;;;63.45;10.23;;;16.10;60.50;;;;;;5072622;28;20094;-70
2024/03/30 05:13:22;;;;;;;52.65;10.57;;;16.00;60.30;;;;;;5072754;28;20123;-70
2024/03/30 05:15:48;;;;;;;64.35;9.93;;;16.00;60.30;;;;;;5072810;28;20029;-69
2024/03/30 05:18:17;;;;;;;50.13;9.07;;;16.00;60.30;;;;;;5072427;28;20167;-72
2024/03/30 05:20:50;;;;;;;49.17;9.38;;;16.00;60.40;;;;;;5072743;28;20036;-71
2024/03/30 05:23:20;;;;;;;52.38;9.73;;;16.00;60.20;;;;;;5072529;28;20064;-70
2024/03/30 05:25:47;;;;;;;63.85;10.45;;;16.10;60.30;;;;;;5072831;28;20108;-71
2024/03/30 05:28:14;;;;;;;58.55;10.10;;;16.10;60.20;;;;;;5072491;28;20033;-70
2024/03/30 05:30:40;;;;;;;56.30;9.10;;;16.10;60.30;;;;;;5072721;28;20032;-71
2024/03/30 05:33:08;;;;;;;55.20;9.55;;;16.20;60.10;;;;;;5072397;28;20395;-71
2024/03/30 05:35:35;;;;;;;53.85;10.70;;;16.30;60.20;;;;;;5072736;28;20108;-70
2024/03/30 05:38:01;;;;;;;59.00;9.27;;;16.40;60.10;;;;;;5072721;28;20430;-71
2024/03/30 05:40:31;;;;;;;54.97;8.10;;;16.40;59.90;;;;;;5072527;28;20395;-71
2024/03/30 05:42:58;;;;;;;51.03;9.35;;;16.50;59.90;;;;;;5072481;28;20041;-70
2024/03/30 05:45:24;;;;;;;51.85;10.00;;;16.60;59.70;;;;;;5072420;28;20036;-70
2024/03/30 05:47:49;;;;;;;69.55;10.40;;;16.70;59.60;;;;;;5072322;28;20040;-71
2024/03/30 05:50:15;;;;;;;57.40;9.98;;;16.80;59.30;;;;;;5072394;28;20037;-71
2024/03/30 05:52:41;;;;;;;59.47;10.27;;;16.90;59.30;;;;;;5072352;28;20029;-71
2024/03/30 05:55:07;;;;;;;53.47;9.13;;;17.00;59.10;;;;;;5072818;28;20077;-70
2024/03/30 05:57:32;;;;;;;56.33;9.48;;;17.00;58.80;;;;;;5072787;28;20036;-71
2024/03/30 05:59:58;;;;;;;57.92;9.73;;;17.20;58.70;;;;;;5072636;28;20115;-71
2024/03/30 06:02:25;;;;;;;50.47;10.80;;;17.30;58.30;;;;;;5079768;28;20037;-70
2024/03/30 06:04:51;;;;;;;51.33;10.30;;;17.50;57.90;;;;;;5078380;28;20063;-70
2024/03/30 06:07:16;;;;;;;53.95;11.75;;;17.70;57.70;;;;;;5073998;28;20409;-71
2024/03/30 06:09:43;;;;;;;63.10;9.55;;;17.90;57.50;;;;;;5073174;28;20032;-72
2024/03/30 06:12:09;;;;;;;60.60;9.68;;;18.00;57.20;;;;;;5076718;28;20078;-70
2024/03/30 06:14:34;;;;;;;54.70;10.00;;;18.10;57.10;;;;;;5076367;28;20033;-71
2024/03/30 06:17:00;;;;;;;55.88;9.65;;;18.30;56.80;;;;;;5076208;28;20032;-71
2024/03/30 06:19:26;;;;;;;51.03;8.65;;;18.40;56.60;;;;;;5075673;28;20052;-72
2024/03/30 06:21:54;;;;;;;51.35;10.13;;;18.60;56.40;;;;;;5057885;28;20084;-71
2024/03/30 06:24:20;;;;;;;59.47;10.35;;;18.80;55.90;;;;;;5075676;28;20055;-71
2024/03/30 06:26:46;;;;;;;59.00;9.50;;;19.00;55.70;;;;;;5075806;28;20029;-72
2024/03/30 06:29:11;;;;;;;60.33;9.85;;;19.20;55.50;;;;;;5057542;28;20044;-71
2024/03/30 06:31:37;;;;;;;49.10;8.88;;;19.40;54.90;;;;;;5074992;28;20488;-72
2024/03/30 06:34:05;;;;;;;67.90;10.55;;;19.60;54.50;;;;;;5075086;28;20115;-70
2024/03/30 06:36:32;;;;;;;67.00;10.38;;;19.90;54.10;;;;;;5075229;28;20028;-71
2024/03/30 06:38:58;;;;;;;49.05;9.52;;;20.00;53.70;;;;;;5075125;28;20060;-70
2024/03/30 06:44:08;;;;;;;53.10;8.88;;;20.40;53.10;;;;;;5075209;28;20090;-73
2024/03/30 06:46:34;;;;;;;53.50;9.75;;;20.60;53.20;;;;;;5075343;28;20111;-71
2024/03/30 06:48:59;;;;;;;54.63;9.07;;;20.70;53.10;;;;;;5075086;28;20115;-71
2024/03/30 06:51:25;;;;;;;53.38;8.82;;;20.80;52.40;;;;;;5076548;28;20047;-70
2024/03/30 06:53:51;;;;;;;53.80;8.73;;;21.00;52.30;;;;;;5072940;28;20462;-72
2024/03/30 06:56:17;;;;;;;46.70;7.28;;;21.20;51.70;;;;;;5073341;28;20036;-70
2024/03/30 06:58:42;;;;;;;58.50;9.65;;;21.40;51.40;;;;;;5074012;28;20056;-71
2024/03/30 07:01:09;;;;;;;62.80;9.32;;;21.50;51.20;;;;;;5074104;28;20055;-70
2024/03/30 07:03:35;;;;;;;48.70;9.10;;;21.70;51.00;;;;;;5073855;28;20036;-71
2024/03/30 07:06:00;;;;;;;43.65;7.88;;;21.80;50.90;;;;;;5073789;28;20103;-71
2024/03/30 07:08:26;;;;;;;65.75;10.73;;;22.00;50.80;;;;;;5056321;28;20029;-70
2024/03/30 07:10:52;;;;;;;64.65;9.32;;;22.20;50.60;;;;;;5074253;28;20051;-73
2024/03/30 07:13:18;;;;;;;54.85;8.63;;;22.20;50.40;;;;;;5073945;28;20092;-71
2024/03/30 07:15:43;;;;;;;52.00;9.80;;;22.40;50.00;;;;;;5073697;28;20483;-73
2024/03/30 07:18:11;;;;;;;49.95;9.30;;;22.40;49.70;;;;;;5073631;28;20059;-71
2024/03/30 07:20:37;;;;;;;51.17;8.15;;;22.60;49.60;;;;;;5073316;28;20456;-70
2024/03/30 07:23:03;;;;;;;41.28;7.88;;;22.60;49.50;;;;;;5072756;28;20043;-67
2024/03/30 07:25:29;;;;;;;55.42;8.43;;;22.60;48.80;;;;;;5073901;28;20032;-71
2024/03/30 07:27:55;;;;;;;49.50;7.78;;;22.60;49.00;;;;;;5073768;28;20380;-71
2024/03/30 07:30:20;;;;;;;51.70;8.65;;;22.70;48.70;;;;;;5074370;28;20535;-82
2024/03/30 07:32:46;;;;;;;55.17;9.80;;;22.80;48.80;;;;;;5074088;28;21081;-75
2024/03/30 07:35:12;;;;;;;58.75;8.43;;;22.80;48.70;;;;;;5074403;28;20074;-75
2024/03/30 07:37:37;;;;;;;50.10;9.70;;;22.60;48.20;;;;;;5073799;28;20037;-76
2024/03/30 07:40:03;;;;;;;61.80;10.02;;;22.60;48.30;;;;;;5083806;28;20028;-81
2024/03/30 07:42:29;;;;;;;60.33;9.80;;;22.60;47.90;;;;;;5078693;28;20032;-77
2024/03/30 07:44:55;;;;;;;59.13;9.35;;;22.60;48.10;;;;;;5056701;28;20400;-78
2024/03/30 07:47:21;;;;;;;51.80;7.70;;;22.60;47.60;;;;;;5073644;28;20032;-77
2024/03/30 07:49:47;;;;;;;56.67;8.57;;;22.70;47.30;;;;;;5055572;28;20515;-77
2024/03/30 07:52:12;;;;;;;70.63;9.73;;;22.80;47.10;;;;;;5084186;28;20036;-77
2024/03/30 07:54:38;;;;;;;49.83;9.25;;;22.80;46.90;;;;;;5093367;28;20028;-80
2024/03/30 07:57:04;;;;;;;51.50;8.57;;;22.90;46.50;;;;;;5085886;28;20028;-78
2024/03/30 07:59:30;;;;;;;52.13;8.45;;;23.10;46.00;;;;;;5073497;28;20201;-80
2024/03/30 08:01:56;;;;;;;68.05;11.23;;;23.10;45.10;;;;;;5073306;28;20036;-79
2024/03/30 08:04:21;;;;;;;85.05;16.50;;;23.20;45.20;;;;;;5073650;28;20075;-77
2024/03/30 08:06:49;;;;;;;51.35;10.55;;;23.20;44.60;;;;;;5055039;28;20580;-78
2024/03/30 08:09:18;;;;;;;39.85;9.07;;;23.30;45.10;;;;;;5066739;28;20040;-79
2024/03/30 08:11:44;;;;;;;62.17;9.35;;;23.30;44.40;;;;;;5053145;28;20037;-79
2024/03/30 08:14:11;;;;;;;56.17;9.38;;;23.40;43.90;;;;;;5063888;28;20041;-79
2024/03/30 08:16:37;;;;;;;47.88;8.15;;;23.40;44.00;;;;;;5077800;28;20032;-82
2024/03/30 08:19:08;;;;;;;59.15;8.45;;;23.40;43.90;;;;;;5041638;28;20041;-84
2024/03/30 08:21:34;;;;;;;55.28;9.05;;;23.30;42.70;;;;;;5070312;28;20435;-85
2024/03/30 08:24:00;;;;;;;53.30;10.23;;;23.40;43.10;;;;;;5079349;28;20048;-78
2024/03/30 08:26:27;;;;;;;45.33;8.52;;;23.40;42.80;;;;;;5073118;28;20044;-79
2024/03/30 08:28:53;;;;;;;51.72;8.85;;;23.40;43.40;;;;;;5092514;28;20116;-75
2024/03/30 08:31:19;;;;;;;68.57;10.10;;;23.40;43.10;;;;;;5093101;28;20429;-80
2024/03/30 08:33:45;;;;;;;62.30;9.05;;;23.40;43.50;;;;;;5083409;28;20068;-76
2024/03/30 08:36:12;;;;;;;62.40;9.70;;;23.40;43.20;;;;;;5063068;28;20439;-81
2024/03/30 08:38:39;;;;;;;58.10;10.18;;;23.40;42.30;;;;;;5069412;28;20033;-81
2024/03/30 08:41:05;;;;;;;58.17;8.57;;;23.50;43.20;;;;;;5063521;28;20040;-83
2024/03/30 08:43:31;;;;;;;47.38;8.57;;;23.50;43.40;;;;;;5055624;28;20036;-83
2024/03/30 08:45:57;;;;;;;55.75;10.15;;;23.50;43.20;;;;;;5073542;28;20330;-81
2024/03/30 08:48:23;;;;;;;60.08;9.77;;;23.50;43.20;;;;;;5073207;28;20112;-82
2024/03/30 08:50:49;;;;;;;46.97;9.32;;;23.60;43.40;;;;;;5075145;28;20127;-80
2024/03/30 08:53:15;;;;;;;67.25;10.00;;;23.60;43.40;;;;;;5074466;28;20407;-78
2024/03/30 08:55:41;;;;;;;60.55;8.98;;;23.60;43.60;;;;;;5092996;28;20036;-80
2024/03/30 08:58:07;;;;;;;56.40;9.15;;;23.60;43.70;;;;;;5092785;28;20050;-78
2024/03/30 09:00:34;;;;;;;60.63;9.43;;;23.60;43.60;;;;;;5092459;28;20028;-75
2024/03/30 09:03:00;;;;;;;51.50;8.88;;;23.60;43.60;;;;;;5092747;28;20040;-80
2024/03/30 09:05:26;;;;;;;56.45;8.43;;;23.60;43.50;;;;;;5093117;28;20062;-80
2024/03/30 09:07:56;;;;;;;59.30;9.32;;;23.60;43.30;;;;;;5092291;28;20036;-80
2024/03/30 09:10:25;;;;;;;51.33;8.98;;;23.70;42.50;;;;;;5087653;28;20043;-78
2024/03/30 09:12:51;;;;;;;48.80;8.15;;;23.70;43.10;;;;;;5092144;28;20116;-77
2024/03/30 09:15:20;;;;;;;54.67;8.77;;;23.70;42.70;;;;;;5092460;28;20442;-78
2024/03/30 09:17:46;;;;;;;44.97;9.27;;;23.70;42.60;;;;;;5081583;28;20034;-75
2024/03/30 09:20:12;;;;;;;50.95;8.73;;;23.80;42.70;;;;;;5092733;28;20047;-78
2024/03/30 09:22:38;;;;;;;58.72;8.30;;;23.80;42.50;;;;;;5097027;28;20111;-77
2024/03/30 09:25:12;;;;;;;46.72;7.95;;;23.90;42.40;;;;;;5092195;28;20506;-74
2024/03/30 09:27:39;;;;;;;54.10;8.65;;;24.00;42.30;;;;;;5071124;28;20024;-74
2024/03/30 09:30:08;;;;;;;56.38;8.60;;;24.10;42.90;;;;;;5054716;28;20037;-76
2024/03/30 09:32:36;;;;;;;63.10;10.07;;;24.10;42.60;;;;;;5060915;28;20051;-76
2024/03/30 09:35:02;;;;;;;55.00;9.02;;;24.20;42.60;;;;;;5083473;28;20137;-76
2024/03/30 09:37:28;;;;;;;46.92;7.90;;;24.30;42.50;;;;;;5070020;28;20041;-78
2024/03/30 09:39:54;;;;;;;47.72;7.35;;;24.30;42.20;;;;;;5062333;28;20048;-80
2024/03/30 09:42:31;;;;;;;53.90;9.35;;;24.40;42.40;;;;;;5051853;28;20392;-77
2024/03/30 09:44:58;;;;;;;43.70;8.55;;;24.40;42.70;;;;;;5052135;28;20041;-79
2024/03/30 09:47:25;;;;;;;50.17;8.60;;;24.50;42.80;;;;;;5055616;28;20436;-78
2024/03/30 09:49:55;;;;;;;50.33;9.10;;;24.50;43.00;;;;;;5055367;28;20416;-81
2024/03/30 09:52:24;;;;;;;53.40;10.20;;;24.50;43.70;;;;;;5055847;28;20029;-80
2024/03/30 09:54:51;;;;;;;55.28;9.18;;;24.60;44.20;;;;;;5055432;28;20039;-80
2024/03/30 09:57:19;;;;;;;69.38;9.50;;;24.60;44.20;;;;;;5055571;28;20064;-79
2024/03/30 09:59:45;;;;;;;51.25;8.98;;;24.70;43.70;;;;;;5061244;28;20087;-79
2024/03/30 10:02:11;;;;;;;64.90;9.90;;;24.80;43.60;;;;;;5075223;28;20454;-80
2024/03/30 10:04:37;;;;;;;50.17;7.93;;;24.80;43.50;;;;;;5056782;28;20063;-76
2024/03/30 10:07:09;;;;;;;46.70;8.18;;;24.80;43.30;;;;;;5075049;28;20032;-77
2024/03/30 10:09:35;;;;;;;59.50;8.82;;;24.80;43.00;;;;;;5095275;28;20036;-78
2024/03/30 10:12:16;;;;;;;57.72;9.05;;;24.80;43.20;;;;;;5095493;28;20058;-76
2024/03/30 10:14:50;;;;;;;60.85;9.63;;;24.70;42.20;;;;;;5094967;28;20111;-79
2024/03/30 10:17:15;;;;;;;56.05;9.43;;;24.80;43.10;;;;;;5094373;28;20032;-78
2024/03/30 10:19:42;;;;;;;58.58;10.23;;;24.90;42.80;;;;;;5088660;28;20467;-77
2024/03/30 10:22:07;;;;;;;58.30;8.82;;;24.90;42.70;;;;;;5095351;28;20048;-77
2024/03/30 10:24:35;;;;;;;57.90;8.27;;;25.00;42.30;;;;;;5095274;28;20048;-78
2024/03/30 10:27:01;;;;;;;49.80;8.30;;;25.00;42.40;;;;;;5096711;28;20098;-77
2024/03/30 10:29:27;;;;;;;46.13;8.30;;;24.90;42.40;;;;;;5096284;28;20044;-77
2024/03/30 10:31:52;;;;;;;53.45;8.10;;;24.80;42.10;;;;;;5094870;28;20024;-77
2024/03/30 10:34:18;;;;;;;49.40;9.10;;;24.80;42.50;;;;;;5095546;28;20555;-78
2024/03/30 10:36:46;;;;;;;58.38;8.00;;;24.70;42.80;;;;;;5094781;28;20020;-77
2024/03/30 10:39:12;;;;;;;59.00;8.90;;;24.70;42.90;;;;;;5094993;28;20060;-78
2024/03/30 10:41:38;;;;;;;42.53;8.07;;;24.70;42.90;;;;;;5095075;28;20024;-79
2024/03/30 10:44:04;;;;;;;49.22;8.07;;;24.70;42.20;;;;;;5094241;28;20411;-78
2024/03/30 10:46:29;;;;;;;48.88;7.90;;;24.70;42.20;;;;;;5094471;28;20060;-76
2024/03/30 10:48:55;;;;;;;40.30;7.95;;;24.80;42.60;;;;;;5094375;28;20088;-79
2024/03/30 10:51:23;;;;;;;43.22;7.90;;;24.80;42.80;;;;;;5095000;28;20107;-78
2024/03/30 10:53:49;;;;;;;54.55;8.93;;;24.80;43.00;;;;;;5094684;28;20044;-74
2024/03/30 10:56:16;;;;;;;44.25;7.47;;;24.80;42.60;;;;;;5075758;28;20039;-77
2024/03/30 10:58:42;;;;;;;43.03;7.35;;;24.70;42.60;;;;;;5094012;28;20064;-76
2024/03/30 11:01:08;;;;;;;52.85;7.47;;;24.80;42.40;;;;;;5076689;28;20837;-77
2024/03/30 11:03:35;;;;;;;43.38;8.30;;;24.70;42.10;;;;;;5059782;28;20079;-77
2024/03/30 11:06:04;;;;;;;55.67;8.65;;;24.70;41.60;;;;;;5059358;28;20154;-80
2024/03/30 11:08:30;;;;;;;85.70;10.73;;;24.60;40.80;;;;;;5074278;28;20036;-79
2024/03/30 11:10:58;;;;;;;49.25;7.30;;;24.60;41.60;;;;;;5074116;28;20422;-76
2024/03/30 11:13:24;;;;;;;44.00;6.97;;;24.60;40.80;;;;;;5063482;28;20044;-77
2024/03/30 11:15:52;;;;;;;36.78;6.72;;;24.60;40.70;;;;;;5074254;28;20035;-75
2024/03/30 11:18:34;;;;;;;47.15;8.05;;;24.60;40.70;;;;;;5073984;28;20045;-72
2024/03/30 11:21:14;;;;;;;43.50;7.47;;;24.60;39.10;;;;;;5073973;28;20426;-70
2024/03/30 11:23:57;;;;;;;39.63;7.35;;;24.60;39.10;;;;;;5076705;28;20495;-68
2024/03/30 11:26:29;;;;;;;41.58;7.20;;;24.60;39.80;;;;;;5093114;28;20024;-70
2024/03/30 11:29:06;;;;;;;39.13;7.22;;;24.70;39.70;;;;;;5093830;28;20046;-70
2024/03/30 11:31:40;;;;;;;37.42;6.90;;;24.70;39.80;;;;;;5094525;28;20025;-69
2024/03/30 11:34:29;;;;;;;42.13;7.55;;;24.80;40.30;;;;;;5093899;28;20074;-70
2024/03/30 11:37:24;;;;;;;47.17;7.00;;;24.80;39.10;;;;;;5082356;28;20546;-70
2024/03/30 11:40:21;;;;;;;47.85;6.97;;;24.90;38.30;;;;;;5069430;28;20047;-70
2024/03/30 11:43:14;;;;;;;52.15;7.80;;;24.80;39.40;;;;;;5049946;28;20060;-70
2024/03/30 11:45:43;;;;;;;47.30;7.13;;;24.80;38.40;;;;;;5051296;28;20041;-69
2024/03/30 11:48:10;;;;;;;35.53;6.50;;;24.90;39.50;;;;;;5053154;28;20040;-71
2024/03/30 11:50:36;;;;;;;36.30;6.35;;;24.90;38.80;;;;;;5053358;28;20042;-71
2024/03/30 11:53:02;;;;;;;36.38;6.13;;;25.00;39.00;;;;;;5052269;28;20503;-70
2024/03/30 11:55:31;;;;;;;48.60;5.78;;;25.00;38.90;;;;;;5052760;28;20033;-70
2024/03/30 11:57:59;;;;;;;43.22;6.57;;;25.10;38.40;;;;;;5053649;28;20083;-70
2024/03/30 12:00:28;;;;;;;45.92;6.50;;;25.00;37.90;;;;;;5054176;28;20144;-70
2024/03/30 12:03:06;;;;;;;31.15;5.38;;;25.00;37.60;;;;;;5053812;28;20029;-71
2024/03/30 12:05:32;;;;;;;41.53;6.35;;;25.00;37.30;;;;;;5053777;28;20044;-70
2024/03/30 12:08:03;;;;;;;32.25;5.75;;;25.00;37.70;;;;;;5053145;28;20029;-70
2024/03/30 12:10:29;;;;;;;37.38;6.32;;;25.00;36.80;;;;;;5053517;28;20033;-70
2024/03/30 12:12:59;;;;;;;29.52;5.80;;;25.10;37.80;;;;;;5053471;28;20037;-70
2024/03/30 12:15:29;;;;;;;35.08;5.97;;;25.10;37.70;;;;;;5053409;28;20035;-70
2024/03/30 12:17:55;;;;;;;33.60;5.75;;;25.00;37.80;;;;;;5053382;28;20481;-71
2024/03/30 12:20:24;;;;;;;34.63;5.30;;;25.00;37.70;;;;;;5053159;28;20032;-70
2024/03/30 12:22:50;;;;;;;29.95;5.63;;;25.00;37.60;;;;;;5053052;28;20036;-69
2024/03/30 12:25:16;;;;;;;41.55;6.38;;;25.00;37.70;;;;;;5053405;28;20041;-70
2024/03/30 12:27:42;;;;;;;34.42;5.70;;;25.00;37.80;;;;;;5052374;28;20025;-72
2024/03/30 12:30:09;;;;;;;32.17;5.85;;;25.00;38.90;;;;;;5051086;28;20063;-71
2024/03/30 12:32:35;;;;;;;30.33;5.07;;;25.10;39.40;;;;;;5052607;28;20025;-71